createdAt,value
2018-04-13T00:00:27.972Z,994.26
2018-04-13T00:01:27.956Z,994.25
2018-04-13T00:02:27.942Z,994.31
2018-04-13T00:03:27.930Z,994.31
2018-04-13T00:04:27.912Z,994.35
2018-04-13T00:05:27.896Z,994.36
2018-04-13T00:06:27.881Z,994.35
2018-04-13T00:07:27.868Z,994.39
2018-04-13T00:08:27.852Z,994.42
2018-04-13T00:09:27.837Z,994.46
2018-04-13T00:10:27.821Z,994.44
2018-04-13T00:11:27.809Z,994.44
2018-04-13T00:12:27.793Z,994.44
2018-04-13T00:13:27.779Z,994.44
2018-04-13T00:14:27.764Z,994.43
2018-04-13T00:15:27.751Z,994.43
2018-04-13T00:16:27.737Z,994.41
2018-04-13T00:17:27.722Z,994.4
2018-04-13T00:18:27.707Z,994.35
2018-04-13T00:19:27.690Z,994.36
2018-04-13T00:20:27.677Z,994.35
2018-04-13T00:21:27.666Z,994.32
2018-04-13T00:22:27.651Z,994.29
2018-04-13T00:23:27.631Z,994.32
2018-04-13T00:24:27.617Z,994.28
2018-04-13T00:25:27.601Z,994.32
2018-04-13T00:26:27.587Z,994.35
2018-04-13T00:27:27.776Z,994.38
2018-04-13T00:28:27.556Z,994.37
2018-04-13T00:29:27.542Z,994.37
2018-04-13T00:30:27.528Z,994.38
2018-04-13T00:31:27.515Z,994.44
2018-04-13T00:32:27.497Z,994.46
2018-04-13T00:33:27.483Z,994.41
2018-04-13T00:34:27.472Z,994.42
2018-04-13T00:35:27.454Z,994.39
2018-04-13T00:36:27.439Z,994.42
2018-04-13T00:37:27.423Z,994.38
2018-04-13T00:38:27.407Z,994.41
2018-04-13T00:39:27.392Z,994.39
2018-04-13T00:40:27.380Z,994.4
2018-04-13T00:41:27.363Z,994.37
2018-04-13T00:42:27.352Z,994.39
2018-04-13T00:43:27.334Z,994.37
2018-04-13T00:44:27.319Z,994.36
2018-04-13T00:45:27.303Z,994.36
2018-04-13T00:46:27.291Z,994.39
2018-04-13T00:47:27.276Z,994.35
2018-04-13T00:48:27.262Z,994.37
2018-04-13T00:49:27.243Z,994.37
2018-04-13T00:50:27.231Z,994.37
2018-04-13T00:51:27.217Z,994.36
2018-04-13T00:52:27.198Z,994.36
2018-04-13T00:53:27.187Z,994.36
2018-04-13T00:54:27.172Z,994.38
2018-04-13T00:55:27.159Z,994.39
2018-04-13T00:56:27.142Z,994.43
2018-04-13T00:57:27.125Z,994.39
2018-04-13T00:58:27.115Z,994.42
2018-04-13T00:59:27.094Z,994.4
2018-04-13T01:00:27.079Z,994.43
2018-04-13T01:01:27.062Z,994.39
2018-04-13T01:02:27.048Z,994.37
2018-04-13T01:03:27.034Z,994.36
2018-04-13T01:04:27.017Z,994.38
2018-04-13T01:05:27.001Z,994.34
2018-04-13T01:06:26.986Z,994.33
2018-04-13T01:07:26.975Z,994.35
2018-04-13T01:08:26.956Z,994.32
2018-04-13T01:09:26.941Z,994.32
2018-04-13T01:10:26.926Z,994.33
2018-04-13T01:11:26.911Z,994.32
2018-04-13T01:12:26.894Z,994.35
2018-04-13T01:13:26.880Z,994.36
2018-04-13T01:14:26.864Z,994.34
2018-04-13T01:15:26.851Z,994.33
2018-04-13T01:16:26.835Z,994.28
2018-04-13T01:17:26.819Z,994.29
2018-04-13T01:18:26.805Z,994.32
2018-04-13T01:19:26.791Z,994.32
2018-04-13T01:20:26.774Z,994.31
2018-04-13T01:21:26.759Z,994.33
2018-04-13T01:22:26.743Z,994.32
2018-04-13T01:23:26.731Z,994.32
2018-04-13T01:24:26.718Z,994.33
2018-04-13T01:25:26.696Z,994.33
2018-04-13T01:26:26.682Z,994.33
2018-04-13T01:27:26.667Z,994.32
2018-04-13T01:28:26.651Z,994.33
2018-04-13T01:29:26.642Z,994.29
2018-04-13T01:30:26.621Z,994.31
2018-04-13T01:31:26.606Z,994.28
2018-04-13T01:32:26.604Z,994.31
2018-04-13T01:33:26.579Z,994.34
2018-04-13T01:34:26.561Z,994.32
2018-04-13T01:35:26.546Z,994.35
2018-04-13T01:36:26.529Z,994.34
2018-04-13T01:37:26.515Z,994.35
2018-04-13T01:38:26.500Z,994.35
2018-04-13T01:39:26.497Z,994.33
2018-04-13T01:40:26.468Z,994.37
2018-04-13T01:41:26.452Z,994.37
2018-04-13T01:42:26.439Z,994.36
2018-04-13T01:43:26.427Z,994.4
2018-04-13T01:44:26.409Z,994.38
2018-04-13T01:45:26.393Z,994.4
2018-04-13T01:46:26.378Z,994.42
2018-04-13T01:47:26.362Z,994.44
2018-04-13T01:48:26.347Z,994.43
2018-04-13T01:49:26.337Z,994.44
2018-04-13T01:50:26.315Z,994.46
2018-04-13T01:51:26.301Z,994.46
2018-04-13T01:52:26.286Z,994.48
2018-04-13T01:53:26.272Z,994.48
2018-04-13T01:54:26.254Z,994.49
2018-04-13T01:55:26.240Z,994.52
2018-04-13T01:56:26.225Z,994.55
2018-04-13T01:57:26.211Z,994.55
2018-04-13T01:58:26.194Z,994.56
2018-04-13T01:59:26.179Z,994.56
2018-04-13T02:00:26.163Z,994.59
2018-04-13T02:01:26.148Z,994.57
2018-04-13T02:02:26.134Z,994.59
2018-04-13T02:03:26.129Z,994.56
2018-04-13T02:04:26.103Z,994.59
2018-04-13T02:05:26.087Z,994.57
2018-04-13T02:06:26.073Z,994.53
2018-04-13T02:07:26.057Z,994.6
2018-04-13T02:08:26.043Z,994.58
2018-04-13T02:09:26.025Z,994.59
2018-04-13T02:10:26.011Z,994.62
2018-04-13T02:11:25.996Z,994.57
2018-04-13T02:12:25.984Z,994.6
2018-04-13T02:13:25.974Z,994.55
2018-04-13T02:14:25.948Z,994.58
2018-04-13T02:15:25.937Z,994.58
2018-04-13T02:16:25.926Z,994.57
2018-04-13T02:17:25.903Z,994.61
2018-04-13T02:18:25.891Z,994.63
2018-04-13T02:19:25.876Z,994.64
2018-04-13T02:20:25.856Z,994.63
2018-04-13T02:21:25.846Z,994.64
2018-04-13T02:22:25.843Z,994.66
2018-04-13T02:23:25.816Z,994.65
2018-04-13T02:24:25.798Z,994.66
2018-04-13T02:25:25.784Z,994.69
2018-04-13T02:26:25.770Z,994.75
2018-04-13T02:27:25.954Z,994.75
2018-04-13T02:28:25.753Z,994.76
2018-04-13T02:29:25.719Z,994.79
2018-04-13T02:30:25.705Z,994.78
2018-04-13T02:31:25.692Z,994.85
2018-04-13T02:32:25.672Z,994.86
2018-04-13T02:33:25.659Z,994.89
2018-04-13T02:34:25.764Z,994.87
2018-04-13T02:35:25.630Z,994.89
2018-04-13T02:36:25.613Z,994.92
2018-04-13T02:37:25.598Z,994.82
2018-04-13T02:38:25.589Z,994.82
2018-04-13T02:39:25.568Z,994.9
2018-04-13T02:40:25.549Z,994.86
2018-04-13T02:41:25.535Z,994.88
2018-04-13T02:42:25.522Z,994.85
2018-04-13T02:43:25.505Z,994.86
2018-04-13T02:44:25.524Z,994.87
2018-04-13T02:45:25.480Z,994.88
2018-04-13T02:46:25.477Z,994.89
2018-04-13T02:47:25.443Z,994.89
2018-04-13T02:48:25.425Z,994.89
2018-04-13T02:49:25.469Z,994.92
2018-04-13T02:50:25.403Z,994.94
2018-04-13T02:51:25.384Z,994.89
2018-04-13T02:52:25.369Z,994.93
2018-04-13T02:53:25.349Z,994.91
2018-04-13T02:54:25.343Z,994.96
2018-04-13T02:55:25.315Z,994.95
2018-04-13T02:56:25.302Z,994.95
2018-04-13T02:57:25.290Z,994.99
2018-04-13T02:58:25.271Z,994.98
2018-04-13T02:59:25.272Z,995.01
2018-04-13T03:00:25.239Z,995.01
2018-04-13T03:01:25.225Z,995.01
2018-04-13T03:02:25.208Z,995.02
2018-04-13T03:03:25.188Z,995.02
2018-04-13T03:04:25.175Z,995.04
2018-04-13T03:05:25.159Z,994.99
2018-04-13T03:06:25.153Z,994.96
2018-04-13T03:07:25.125Z,994.96
2018-04-13T03:08:25.114Z,994.97
2018-04-13T03:09:25.095Z,994.94
2018-04-13T03:10:25.087Z,994.99
2018-04-13T03:11:25.063Z,994.98
2018-04-13T03:12:25.049Z,994.99
2018-04-13T03:13:25.034Z,995.02
2018-04-13T03:14:25.016Z,994.98
2018-04-13T03:15:24.999Z,995
2018-04-13T03:16:24.985Z,994.98
2018-04-13T03:17:24.970Z,995
2018-04-13T03:18:24.954Z,994.98
2018-04-13T03:19:24.937Z,995.02
2018-04-13T03:20:24.922Z,995.01
2018-04-13T03:21:24.907Z,995.04
2018-04-13T03:22:24.889Z,995.12
2018-04-13T03:23:24.877Z,995.09
2018-04-13T03:24:24.859Z,995.12
2018-04-13T03:25:24.842Z,995.2
2018-04-13T03:26:24.826Z,995.24
2018-04-13T03:27:24.809Z,995.24
2018-04-13T03:28:24.794Z,995.25
2018-04-13T03:29:24.780Z,995.23
2018-04-13T03:30:24.764Z,995.26
2018-04-13T03:31:24.746Z,995.24
2018-04-13T03:32:24.733Z,995.23
2018-04-13T03:33:24.713Z,995.22
2018-04-13T03:34:24.699Z,995.22
2018-04-13T03:35:24.684Z,995.21
2018-04-13T03:36:24.667Z,995.22
2018-04-13T03:37:24.650Z,995.25
2018-04-13T03:38:24.636Z,995.25
2018-04-13T03:39:24.616Z,995.23
2018-04-13T03:40:24.600Z,995.28
2018-04-13T03:41:24.585Z,995.28
2018-04-13T03:42:24.569Z,995.26
2018-04-13T03:43:24.554Z,995.27
2018-04-13T03:44:24.536Z,995.27
2018-04-13T03:45:24.531Z,995.27
2018-04-13T03:46:24.506Z,995.28
2018-04-13T03:47:24.494Z,995.31
2018-04-13T03:48:24.476Z,995.29
2018-04-13T03:49:24.456Z,995.33
2018-04-13T03:50:24.449Z,995.33
2018-04-13T03:51:24.425Z,995.37
2018-04-13T03:52:24.412Z,995.38
2018-04-13T03:53:24.395Z,995.4
2018-04-13T03:54:24.391Z,995.43
2018-04-13T03:55:24.360Z,995.45
2018-04-13T03:56:24.344Z,995.44
2018-04-13T03:57:24.329Z,995.46
2018-04-13T03:58:24.314Z,995.47
2018-04-13T03:59:24.299Z,995.48
2018-04-13T04:00:24.287Z,995.51
2018-04-13T04:01:24.264Z,995.53
2018-04-13T04:02:24.249Z,995.52
2018-04-13T04:03:24.232Z,995.53
2018-04-13T04:04:24.219Z,995.53
2018-04-13T04:05:24.198Z,995.56
2018-04-13T04:06:24.187Z,995.57
2018-04-13T04:07:24.169Z,995.6
2018-04-13T04:08:24.153Z,995.53
2018-04-13T04:09:24.137Z,995.56
2018-04-13T04:10:24.116Z,995.53
2018-04-13T04:11:24.100Z,995.53
2018-04-13T04:12:24.085Z,995.49
2018-04-13T04:13:24.069Z,995.53
2018-04-13T04:14:24.054Z,995.58
2018-04-13T04:15:24.037Z,995.6
2018-04-13T04:16:24.025Z,995.57
2018-04-13T04:17:24.005Z,995.55
2018-04-13T04:18:23.987Z,995.54
2018-04-13T04:19:23.972Z,995.54
2018-04-13T04:20:23.954Z,995.56
2018-04-13T04:21:23.939Z,995.6
2018-04-13T04:22:23.926Z,995.57
2018-04-13T04:23:23.906Z,995.57
2018-04-13T04:24:23.890Z,995.6
2018-04-13T04:25:23.874Z,995.6
2018-04-13T04:26:23.857Z,995.59
2018-04-13T04:27:24.042Z,995.62
2018-04-13T04:28:23.826Z,995.65
2018-04-13T04:29:23.807Z,995.64
2018-04-13T04:30:23.794Z,995.6
2018-04-13T04:31:23.775Z,995.61
2018-04-13T04:32:23.761Z,995.58
2018-04-13T04:33:23.742Z,995.65
2018-04-13T04:34:23.726Z,995.67
2018-04-13T04:35:23.710Z,995.67
2018-04-13T04:36:23.694Z,995.66
2018-04-13T04:37:23.676Z,995.68
2018-04-13T04:38:23.660Z,995.68
2018-04-13T04:39:23.648Z,995.63
2018-04-13T04:40:23.626Z,995.64
2018-04-13T04:41:23.611Z,995.66
2018-04-13T04:42:23.595Z,995.65
2018-04-13T04:43:23.580Z,995.72
2018-04-13T04:44:23.561Z,995.71
2018-04-13T04:45:23.550Z,995.71
2018-04-13T04:46:23.530Z,995.7
2018-04-13T04:47:23.516Z,995.73
2018-04-13T04:48:23.498Z,995.75
2018-04-13T04:49:23.480Z,995.74
2018-04-13T04:50:23.465Z,995.73
2018-04-13T04:51:23.446Z,995.69
2018-04-13T04:52:23.432Z,995.71
2018-04-13T04:53:23.419Z,995.66
2018-04-13T04:54:23.399Z,995.72
2018-04-13T04:55:23.380Z,995.74
2018-04-13T04:56:23.366Z,995.74
2018-04-13T04:57:23.350Z,995.74
2018-04-13T04:58:23.333Z,995.78
2018-04-13T04:59:23.318Z,995.76
2018-04-13T05:00:23.301Z,995.76
2018-04-13T05:01:23.282Z,995.76
2018-04-13T05:02:23.267Z,995.82
2018-04-13T05:03:23.250Z,995.81
2018-04-13T05:04:23.242Z,995.85
2018-04-13T05:05:23.218Z,995.82
2018-04-13T05:06:23.201Z,995.81
2018-04-13T05:07:23.184Z,995.85
2018-04-13T05:08:23.168Z,995.88
2018-04-13T05:09:23.152Z,995.92
2018-04-13T05:10:23.134Z,995.93
2018-04-13T05:11:23.119Z,995.91
2018-04-13T05:12:23.103Z,995.92
2018-04-13T05:13:23.086Z,995.95
2018-04-13T05:14:23.072Z,995.92
2018-04-13T05:15:23.053Z,995.94
2018-04-13T05:16:23.039Z,995.97
2018-04-13T05:17:23.021Z,995.96
2018-04-13T05:18:23.003Z,995.96
2018-04-13T05:19:22.988Z,996.02
2018-04-13T05:20:22.971Z,996.04
2018-04-13T05:21:22.955Z,996.01
2018-04-13T05:22:22.938Z,996.07
2018-04-13T05:23:22.923Z,996.08
2018-04-13T05:24:22.909Z,996.07
2018-04-13T05:25:22.897Z,996.07
2018-04-13T05:26:22.876Z,996.11
2018-04-13T05:27:22.859Z,996.11
2018-04-13T05:28:22.850Z,996.16
2018-04-13T05:29:22.828Z,996.16
2018-04-13T05:30:22.810Z,996.2
2018-04-13T05:31:22.798Z,996.18
2018-04-13T05:32:22.782Z,996.21
2018-04-13T05:33:22.764Z,996.19
2018-04-13T05:34:22.749Z,996.17
2018-04-13T05:35:22.808Z,996.15
2018-04-13T05:36:22.716Z,996.17
2018-04-13T05:37:22.702Z,996.16
2018-04-13T05:38:22.687Z,996.18
2018-04-13T05:39:22.677Z,996.18
2018-04-13T05:40:22.653Z,996.21
2018-04-13T05:41:22.641Z,996.22
2018-04-13T05:42:22.619Z,996.24
2018-04-13T05:43:22.605Z,996.22
2018-04-13T05:44:22.591Z,996.25
2018-04-13T05:45:22.575Z,996.27
2018-04-13T05:46:22.558Z,996.29
2018-04-13T05:47:22.543Z,996.29
2018-04-13T05:48:22.530Z,996.34
2018-04-13T05:49:22.516Z,996.34
2018-04-13T05:50:22.502Z,996.34
2018-04-13T05:51:22.482Z,996.34
2018-04-13T05:52:22.464Z,996.36
2018-04-13T05:53:22.448Z,996.39
2018-04-13T05:54:22.435Z,996.4
2018-04-13T05:55:22.418Z,996.42
2018-04-13T05:56:22.403Z,996.44
2018-04-13T05:57:22.390Z,996.41
2018-04-13T05:58:22.373Z,996.43
2018-04-13T05:59:22.355Z,996.43
2018-04-13T06:00:22.340Z,996.42
2018-04-13T06:01:22.326Z,996.41
2018-04-13T06:02:22.319Z,996.38
2018-04-13T06:03:22.294Z,996.39
2018-04-13T06:04:22.282Z,996.38
2018-04-13T06:05:22.266Z,996.39
2018-04-13T06:06:22.250Z,996.39
2018-04-13T06:07:22.235Z,996.41
2018-04-13T06:08:22.218Z,996.39
2018-04-13T06:09:22.204Z,996.4
2018-04-13T06:10:22.188Z,996.42
2018-04-13T06:11:22.172Z,996.4
2018-04-13T06:12:22.159Z,996.41
2018-04-13T06:13:22.147Z,996.42
2018-04-13T06:14:22.130Z,996.43
2018-04-13T06:15:22.113Z,996.42
2018-04-13T06:16:22.098Z,996.37
2018-04-13T06:17:22.084Z,996.41
2018-04-13T06:18:22.070Z,996.41
2018-04-13T06:19:22.099Z,996.4
2018-04-13T06:20:22.038Z,996.4
2018-04-13T06:21:22.023Z,996.41
2018-04-13T06:22:22.009Z,996.45
2018-04-13T06:23:21.994Z,996.46
2018-04-13T06:24:22.104Z,996.52
2018-04-13T06:25:21.965Z,996.51
2018-04-13T06:26:21.950Z,996.51
2018-04-13T06:27:21.940Z,996.57
2018-04-13T06:28:21.922Z,996.54
2018-04-13T06:29:21.907Z,996.59
2018-04-13T06:30:21.892Z,996.59
2018-04-13T06:31:21.879Z,996.63
2018-04-13T06:32:21.869Z,996.67
2018-04-13T06:33:21.849Z,996.73
2018-04-13T06:34:21.840Z,996.72
2018-04-13T06:35:21.821Z,996.73
2018-04-13T06:36:21.809Z,996.74
2018-04-13T06:37:21.793Z,996.8
2018-04-13T06:38:21.779Z,996.82
2018-04-13T06:39:21.766Z,996.87
2018-04-13T06:40:21.750Z,996.98
2018-04-13T06:41:21.737Z,997.03
2018-04-13T06:42:21.723Z,997.13
2018-04-13T06:43:21.709Z,997.21
2018-04-13T06:44:21.696Z,997.29
2018-04-13T06:45:21.680Z,997.33
2018-04-13T06:46:21.666Z,997.37
2018-04-13T06:47:21.653Z,997.34
2018-04-13T06:48:21.640Z,997.29
2018-04-13T06:49:21.625Z,997.17
2018-04-13T06:50:21.611Z,997.12
2018-04-13T06:51:21.597Z,997.08
2018-04-13T06:52:21.585Z,997.01
2018-04-13T06:53:21.571Z,996.98
2018-04-13T06:54:21.556Z,996.97
2018-04-13T06:55:21.543Z,996.89
2018-04-13T06:56:21.537Z,996.88
2018-04-13T06:57:21.520Z,996.85
2018-04-13T06:58:21.505Z,996.8
2018-04-13T06:59:21.487Z,996.76
2018-04-13T07:00:21.474Z,996.76
2018-04-13T07:01:21.460Z,996.75
2018-04-13T07:02:21.445Z,996.74
2018-04-13T07:03:21.433Z,996.74
2018-04-13T07:04:21.422Z,996.68
2018-04-13T07:05:21.407Z,996.7
2018-04-13T07:06:21.393Z,996.67
2018-04-13T07:07:21.380Z,996.63
2018-04-13T07:08:21.381Z,996.65
2018-04-13T07:09:21.352Z,996.68
2018-04-13T07:10:21.341Z,996.66
2018-04-13T07:11:21.327Z,996.7
2018-04-13T07:12:21.316Z,996.73
2018-04-13T07:13:21.300Z,996.72
2018-04-13T07:14:21.290Z,996.71
2018-04-13T07:15:21.272Z,996.75
2018-04-13T07:16:21.265Z,996.77
2018-04-13T07:17:21.244Z,996.79
2018-04-13T07:18:21.232Z,996.79
2018-04-13T07:19:21.241Z,996.8
2018-04-13T07:20:21.204Z,996.81
2018-04-13T07:21:21.190Z,996.81
2018-04-13T07:22:21.177Z,996.84
2018-04-13T07:23:21.166Z,996.86
2018-04-13T07:24:21.155Z,996.86
2018-04-13T07:25:21.143Z,996.88
2018-04-13T07:26:21.124Z,996.93
2018-04-13T07:27:21.111Z,996.95
2018-04-13T07:28:21.098Z,996.93
2018-04-13T07:29:21.084Z,996.94
2018-04-13T07:30:21.073Z,996.93
2018-04-13T07:31:21.061Z,996.96
2018-04-13T07:32:21.045Z,997
2018-04-13T07:33:21.033Z,996.94
2018-04-13T07:34:21.023Z,996.96
2018-04-13T07:35:21.009Z,996.91
2018-04-13T07:36:21.013Z,996.95
2018-04-13T07:37:20.983Z,996.95
2018-04-13T07:38:20.971Z,996.93
2018-04-13T07:39:21.006Z,996.96
2018-04-13T07:40:20.949Z,996.89
2018-04-13T07:41:20.933Z,996.96
2018-04-13T07:42:20.924Z,996.97
2018-04-13T07:43:20.907Z,996.96
2018-04-13T07:44:20.895Z,996.98
2018-04-13T07:45:20.883Z,997
2018-04-13T07:46:20.873Z,996.99
2018-04-13T07:47:20.860Z,996.97
2018-04-13T07:48:20.845Z,997
2018-04-13T07:49:20.835Z,997
2018-04-13T07:50:20.823Z,997.01
2018-04-13T07:51:20.813Z,997.03
2018-04-13T07:52:20.827Z,997.05
2018-04-13T07:53:20.787Z,997.08
2018-04-13T07:54:20.774Z,997.06
2018-04-13T07:55:20.764Z,997.07
2018-04-13T07:56:20.756Z,997.05
2018-04-13T07:57:20.744Z,997.03
2018-04-13T07:58:20.728Z,997.06
2018-04-13T07:59:21.192Z,997.01
2018-04-13T08:00:21.080Z,997.01
2018-04-13T08:01:20.691Z,997.02
2018-04-13T08:02:20.685Z,996.98
2018-04-13T08:03:20.666Z,996.95
2018-04-13T08:04:20.658Z,996.95
2018-04-13T08:05:20.646Z,996.95
2018-04-13T08:06:20.638Z,996.99
2018-04-13T08:07:20.621Z,997.02
2018-04-13T08:08:20.610Z,997.02
2018-04-13T08:09:20.597Z,997.06
2018-04-13T08:10:20.586Z,997.08
2018-04-13T08:11:20.575Z,997.08
2018-04-13T08:12:20.602Z,997.08
2018-04-13T08:13:20.551Z,997.11
2018-04-13T08:14:20.539Z,997.11
2018-04-13T08:15:20.531Z,997.09
2018-04-13T08:16:20.516Z,997.09
2018-04-13T08:17:20.513Z,997.14
2018-04-13T08:18:20.495Z,997.16
2018-04-13T08:19:20.482Z,997.15
2018-04-13T08:20:20.477Z,997.14
2018-04-13T08:21:20.459Z,997.16
2018-04-13T08:22:20.447Z,997.14
2018-04-13T08:23:20.495Z,997.17
2018-04-13T08:24:20.425Z,997.21
2018-04-13T08:25:20.412Z,997.21
2018-04-13T08:26:20.401Z,997.2
2018-04-13T08:27:20.390Z,997.2
2018-04-13T08:28:20.579Z,997.24
2018-04-13T08:29:20.366Z,997.25
2018-04-13T08:30:20.355Z,997.25
2018-04-13T08:31:20.371Z,997.28
2018-04-13T08:32:20.333Z,997.25
2018-04-13T08:33:20.320Z,997.27
2018-04-13T08:34:20.307Z,997.28
2018-04-13T08:35:20.301Z,997.28
2018-04-13T08:36:20.286Z,997.32
2018-04-13T08:37:20.273Z,997.32
2018-04-13T08:38:20.269Z,997.33
2018-04-13T08:39:20.250Z,997.36
2018-04-13T08:40:20.268Z,997.39
2018-04-13T08:41:20.228Z,997.43
2018-04-13T08:42:20.222Z,997.42
2018-04-13T08:43:20.260Z,997.41
2018-04-13T08:44:20.205Z,997.44
2018-04-13T08:45:20.184Z,997.44
2018-04-13T08:46:20.171Z,997.43
2018-04-13T08:47:20.163Z,997.41
2018-04-13T08:48:20.150Z,997.41
2018-04-13T08:49:20.182Z,997.42
2018-04-13T08:50:20.128Z,997.38
2018-04-13T08:51:20.123Z,997.44
2018-04-13T08:52:20.118Z,997.45
2018-04-13T08:53:20.095Z,997.45
2018-04-13T08:54:20.083Z,997.48
2018-04-13T08:55:20.075Z,997.51
2018-04-13T08:56:20.063Z,997.54
2018-04-13T08:57:20.061Z,997.56
2018-04-13T08:58:20.041Z,997.55
2018-04-13T08:59:20.031Z,997.58
2018-04-13T09:00:20.026Z,997.62
2018-04-13T09:01:20.009Z,997.66
2018-04-13T09:02:20.002Z,997.66
2018-04-13T09:03:19.988Z,997.7
2018-04-13T09:04:19.988Z,997.75
2018-04-13T09:05:19.968Z,997.73
2018-04-13T09:06:19.964Z,997.71
2018-04-13T09:07:19.958Z,997.76
2018-04-13T09:08:19.975Z,997.76
2018-04-13T09:09:19.930Z,997.79
2018-04-13T09:10:19.922Z,997.81
2018-04-13T09:11:19.912Z,997.82
2018-04-13T09:12:19.899Z,997.81
2018-04-13T09:13:19.890Z,997.83
2018-04-13T09:14:19.889Z,997.87
2018-04-13T09:15:19.869Z,997.84
2018-04-13T09:16:19.861Z,997.85
2018-04-13T09:17:19.848Z,997.86
2018-04-13T09:18:19.840Z,997.85
2018-04-13T09:19:19.829Z,997.9
2018-04-13T09:20:19.819Z,997.87
2018-04-13T09:21:19.809Z,997.9
2018-04-13T09:22:19.799Z,997.91
2018-04-13T09:23:19.795Z,997.9
2018-04-13T09:24:19.785Z,997.89
2018-04-13T09:25:19.769Z,997.9
2018-04-13T09:26:19.757Z,997.85
2018-04-13T09:27:19.749Z,997.9
2018-04-13T09:28:19.744Z,997.89
2018-04-13T09:29:19.728Z,997.84
2018-04-13T09:30:19.719Z,997.82
2018-04-13T09:31:19.712Z,997.85
2018-04-13T09:32:19.701Z,997.78
2018-04-13T09:33:19.690Z,997.75
2018-04-13T09:34:19.678Z,997.73
2018-04-13T09:35:19.674Z,997.73
2018-04-13T09:36:19.660Z,997.68
2018-04-13T09:37:19.656Z,997.69
2018-04-13T09:38:19.641Z,997.71
2018-04-13T09:39:19.631Z,997.68
2018-04-13T09:40:19.615Z,997.71
2018-04-13T09:41:19.611Z,997.74
2018-04-13T09:42:19.600Z,997.71
2018-04-13T09:43:19.589Z,997.74
2018-04-13T09:44:19.592Z,997.74
2018-04-13T09:45:19.565Z,997.75
2018-04-13T09:46:19.559Z,997.73
2018-04-13T09:47:19.544Z,997.72
2018-04-13T09:48:19.534Z,997.73
2018-04-13T09:49:19.525Z,997.71
2018-04-13T09:50:19.520Z,997.7
2018-04-13T09:51:19.502Z,997.67
2018-04-13T09:52:19.492Z,997.66
2018-04-13T09:53:19.487Z,997.67
2018-04-13T09:54:19.473Z,997.63
2018-04-13T09:55:19.468Z,997.67
2018-04-13T09:56:19.452Z,997.68
2018-04-13T09:57:19.443Z,997.69
2018-04-13T09:58:19.440Z,997.68
2018-04-13T09:59:19.421Z,997.74
2018-04-13T10:00:19.414Z,997.69
2018-04-13T10:01:19.402Z,997.73
2018-04-13T10:02:19.400Z,997.69
2018-04-13T10:03:19.383Z,997.68
2018-04-13T10:04:19.372Z,997.72
2018-04-13T10:05:19.361Z,997.69
2018-04-13T10:06:19.349Z,997.7
2018-04-13T10:07:19.340Z,997.67
2018-04-13T10:08:19.329Z,997.68
2018-04-13T10:09:19.322Z,997.69
2018-04-13T10:10:19.312Z,997.7
2018-04-13T10:11:19.301Z,997.69
2018-04-13T10:12:19.289Z,997.71
2018-04-13T10:13:19.279Z,997.71
2018-04-13T10:14:19.267Z,997.74
2018-04-13T10:15:19.260Z,997.76
2018-04-13T10:16:19.249Z,997.8
2018-04-13T10:17:19.239Z,997.81
2018-04-13T10:18:19.230Z,997.88
2018-04-13T10:19:19.221Z,997.91
2018-04-13T10:20:19.210Z,997.94
2018-04-13T10:21:19.196Z,997.95
2018-04-13T10:22:19.187Z,997.99
2018-04-13T10:23:19.177Z,998
2018-04-13T10:24:19.168Z,998.02
2018-04-13T10:25:19.163Z,998.05
2018-04-13T10:26:19.149Z,998.05
2018-04-13T10:27:19.137Z,998.02
2018-04-13T10:28:19.328Z,998.11
2018-04-13T10:29:19.117Z,998.12
2018-04-13T10:30:19.106Z,998.08
2018-04-13T10:31:19.095Z,998.17
2018-04-13T10:32:19.086Z,998.14
2018-04-13T10:33:19.079Z,998.18
2018-04-13T10:34:19.065Z,998.16
2018-04-13T10:35:19.058Z,998.18
2018-04-13T10:36:19.049Z,998.21
2018-04-13T10:37:19.035Z,998.18
2018-04-13T10:38:19.023Z,998.19
2018-04-13T10:39:19.015Z,998.25
2018-04-13T10:40:19.003Z,998.23
2018-04-13T10:41:18.995Z,998.25
2018-04-13T10:42:18.988Z,998.29
2018-04-13T10:43:18.975Z,998.31
2018-04-13T10:44:18.967Z,998.31
2018-04-13T10:45:18.955Z,998.32
2018-04-13T10:46:18.944Z,998.31
2018-04-13T10:47:18.933Z,998.33
2018-04-13T10:48:18.924Z,998.36
2018-04-13T10:49:18.945Z,998.37
2018-04-13T10:50:18.902Z,998.35
2018-04-13T10:51:18.893Z,998.37
2018-04-13T10:52:18.895Z,998.37
2018-04-13T10:53:18.879Z,998.39
2018-04-13T10:54:18.864Z,998.36
2018-04-13T10:55:18.855Z,998.38
2018-04-13T10:56:18.846Z,998.37
2018-04-13T10:57:18.834Z,998.37
2018-04-13T10:58:18.824Z,998.42
2018-04-13T10:59:18.819Z,998.44
2018-04-13T11:00:18.808Z,998.43
2018-04-13T11:01:18.796Z,998.42
2018-04-13T11:02:18.789Z,998.43
2018-04-13T11:03:18.776Z,998.4
2018-04-13T11:04:18.767Z,998.41
2018-04-13T11:05:18.759Z,998.4
2018-04-13T11:06:18.748Z,998.42
2018-04-13T11:07:18.739Z,998.43
2018-04-13T11:08:18.726Z,998.42
2018-04-13T11:09:18.718Z,998.47
2018-04-13T11:10:18.753Z,998.45
2018-04-13T11:11:18.698Z,998.47
2018-04-13T11:12:18.687Z,998.52
2018-04-13T11:13:18.681Z,998.55
2018-04-13T11:14:18.668Z,998.51
2018-04-13T11:15:18.658Z,998.55
2018-04-13T11:16:18.654Z,998.55
2018-04-13T11:17:18.643Z,998.6
2018-04-13T11:18:18.630Z,998.61
2018-04-13T11:19:18.619Z,998.59
2018-04-13T11:20:18.608Z,998.57
2018-04-13T11:21:18.599Z,998.58
2018-04-13T11:22:18.591Z,998.57
2018-04-13T11:23:18.579Z,998.56
2018-04-13T11:24:18.569Z,998.59
2018-04-13T11:25:18.559Z,998.6
2018-04-13T11:26:18.552Z,998.61
2018-04-13T11:27:18.537Z,998.63
2018-04-13T11:28:18.535Z,998.68
2018-04-13T11:29:18.519Z,998.71
2018-04-13T11:30:18.508Z,998.69
2018-04-13T11:31:18.502Z,998.71
2018-04-13T11:32:18.487Z,998.79
2018-04-13T11:33:18.475Z,998.74
2018-04-13T11:34:18.471Z,998.73
2018-04-13T11:35:18.456Z,998.77
2018-04-13T11:36:18.446Z,998.73
2018-04-13T11:37:18.433Z,998.72
2018-04-13T11:38:18.427Z,998.73
2018-04-13T11:39:18.412Z,998.71
2018-04-13T11:40:18.409Z,998.76
2018-04-13T11:41:18.392Z,998.75
2018-04-13T11:42:18.381Z,998.74
2018-04-13T11:43:18.372Z,998.71
2018-04-13T11:44:18.361Z,998.7
2018-04-13T11:45:18.351Z,998.72
2018-04-13T11:46:18.345Z,998.69
2018-04-13T11:47:18.325Z,998.67
2018-04-13T11:48:18.313Z,998.69
2018-04-13T11:49:18.306Z,998.68
2018-04-13T11:50:18.294Z,998.69
2018-04-13T11:51:18.284Z,998.71
2018-04-13T11:52:18.273Z,998.76
2018-04-13T11:53:18.275Z,998.82
2018-04-13T11:54:18.254Z,998.86
2018-04-13T11:55:18.239Z,998.84
2018-04-13T11:56:18.230Z,998.85
2018-04-13T11:57:18.218Z,998.85
2018-04-13T11:58:18.208Z,998.87
2018-04-13T11:59:18.196Z,998.92
2018-04-13T12:00:18.188Z,998.93
2018-04-13T12:01:18.194Z,998.96
2018-04-13T12:02:18.164Z,998.94
2018-04-13T12:03:18.157Z,998.96
2018-04-13T12:04:18.143Z,998.97
2018-04-13T12:05:18.131Z,998.93
2018-04-13T12:06:18.118Z,998.98
2018-04-13T12:07:18.111Z,998.97
2018-04-13T12:08:18.098Z,999
2018-04-13T12:09:18.088Z,999
2018-04-13T12:10:18.075Z,999.07
2018-04-13T12:11:18.067Z,999.07
2018-04-13T12:12:18.055Z,999.07
2018-04-13T12:13:18.042Z,999.12
2018-04-13T12:14:18.032Z,999.13
2018-04-13T12:15:18.020Z,999.1
2018-04-13T12:16:18.008Z,999.09
2018-04-13T12:17:17.998Z,999.1
2018-04-13T12:18:17.989Z,999.04
2018-04-13T12:19:17.974Z,999.08
2018-04-13T12:20:17.966Z,999.07
2018-04-13T12:21:17.955Z,999.1
2018-04-13T12:22:17.944Z,999.14
2018-04-13T12:23:17.932Z,999.17
2018-04-13T12:24:17.921Z,999.16
2018-04-13T12:25:17.908Z,999.21
2018-04-13T12:26:17.897Z,999.18
2018-04-13T12:27:17.889Z,999.19
2018-04-13T12:28:18.076Z,999.2
2018-04-13T12:29:17.862Z,999.21
2018-04-13T12:30:17.850Z,999.21